sensor_id;sensor_type;location;lat;lon;timestamp;P1;durP1;ratioP1;P2;durP2;ratioP2
41059;SDS011;26811;53.160;8.202;2023-08-08T00:02:13;23.90;;;5.38;;
41059;SDS011;26811;53.160;8.202;2023-08-08T00:07:14;15.55;;;5.55;;
41059;SDS011;26811;53.160;8.202;2023-08-08T00:12:15;17.02;;;5.18;;
41059;SDS011;26811;53.160;8.202;2023-08-08T00:17:15;15.00;;;5.05;;
41059;SDS011;26811;53.160;8.202;2023-08-08T00:22:16;13.70;;;5.50;;
41059;SDS011;26811;53.160;8.202;2023-08-08T00:27:16;17.98;;;5.15;;
41059;SDS011;26811;53.160;8.202;2023-08-08T00:32:17;22.70;;;5.65;;
41059;SDS011;26811;53.160;8.202;2023-08-08T00:37:17;13.90;;;5.30;;
41059;SDS011;26811;53.160;8.202;2023-08-08T00:42:18;15.38;;;5.47;;
41059;SDS011;26811;53.160;8.202;2023-08-08T00:47:18;19.45;;;5.72;;
41059;SDS011;26811;53.160;8.202;2023-08-08T00:52:19;18.63;;;5.90;;
41059;SDS011;26811;53.160;8.202;2023-08-08T00:57:20;16.70;;;5.40;;
41059;SDS011;26811;53.160;8.202;2023-08-08T01:02:20;17.85;;;5.43;;
41059;SDS011;26811;53.160;8.202;2023-08-08T01:07:25;12.48;;;5.82;;
41059;SDS011;26811;53.160;8.202;2023-08-08T01:12:57;14.48;;;6.38;;
41059;SDS011;26811;53.160;8.202;2023-08-08T01:18:05;30.60;;;5.93;;
41059;SDS011;26811;53.160;8.202;2023-08-08T01:33:11;21.55;;;6.25;;
41059;SDS011;26811;53.160;8.202;2023-08-08T01:38:14;16.85;;;6.20;;
41059;SDS011;26811;53.160;8.202;2023-08-08T01:43:20;19.48;;;6.90;;
41059;SDS011;26811;53.160;8.202;2023-08-08T01:48:22;13.07;;;6.22;;
41059;SDS011;26811;53.160;8.202;2023-08-08T01:53:22;20.75;;;6.32;;
41059;SDS011;26811;53.160;8.202;2023-08-08T01:58:23;14.55;;;6.50;;
41059;SDS011;26811;53.160;8.202;2023-08-08T02:03:23;14.02;;;6.38;;
41059;SDS011;26811;53.160;8.202;2023-08-08T02:08:24;17.25;;;6.70;;
41059;SDS011;26811;53.160;8.202;2023-08-08T02:13:24;17.23;;;6.28;;
41059;SDS011;26811;53.160;8.202;2023-08-08T02:18:25;13.75;;;6.43;;
41059;SDS011;26811;53.160;8.202;2023-08-08T02:23:25;17.35;;;7.15;;
41059;SDS011;26811;53.160;8.202;2023-08-08T02:28:26;22.00;;;7.63;;
41059;SDS011;26811;53.160;8.202;2023-08-08T02:33:27;20.27;;;8.00;;
41059;SDS011;26811;53.160;8.202;2023-08-08T02:38:27;16.88;;;7.60;;
41059;SDS011;26811;53.160;8.202;2023-08-08T02:43:28;16.65;;;8.15;;
41059;SDS011;26811;53.160;8.202;2023-08-08T02:48:29;19.17;;;7.60;;
41059;SDS011;26811;53.160;8.202;2023-08-08T02:53:30;18.93;;;7.60;;
41059;SDS011;26811;53.160;8.202;2023-08-08T02:58:31;24.48;;;8.63;;
41059;SDS011;26811;53.160;8.202;2023-08-08T03:03:31;17.55;;;8.52;;
41059;SDS011;26811;53.160;8.202;2023-08-08T03:08:32;18.90;;;8.38;;
41059;SDS011;26811;53.160;8.202;2023-08-08T03:13:32;14.63;;;7.78;;
41059;SDS011;26811;53.160;8.202;2023-08-08T03:18:33;16.30;;;8.50;;
41059;SDS011;26811;53.160;8.202;2023-08-08T03:23:34;27.67;;;8.88;;
41059;SDS011;26811;53.160;8.202;2023-08-08T03:28:34;23.27;;;9.00;;
41059;SDS011;26811;53.160;8.202;2023-08-08T03:33:35;25.30;;;8.18;;
41059;SDS011;26811;53.160;8.202;2023-08-08T03:38:35;16.98;;;7.72;;
41059;SDS011;26811;53.160;8.202;2023-08-08T03:43:38;17.17;;;7.87;;
41059;SDS011;26811;53.160;8.202;2023-08-08T03:48:39;24.85;;;8.15;;
41059;SDS011;26811;53.160;8.202;2023-08-08T03:53:40;19.10;;;8.30;;
41059;SDS011;26811;53.160;8.202;2023-08-08T03:58:40;19.77;;;8.20;;
41059;SDS011;26811;53.160;8.202;2023-08-08T04:03:41;19.10;;;8.73;;
41059;SDS011;26811;53.160;8.202;2023-08-08T04:08:41;18.73;;;9.50;;
41059;SDS011;26811;53.160;8.202;2023-08-08T04:13:42;25.85;;;8.82;;
41059;SDS011;26811;53.160;8.202;2023-08-08T04:18:42;26.85;;;9.40;;
41059;SDS011;26811;53.160;8.202;2023-08-08T04:23:43;18.27;;;8.38;;
41059;SDS011;26811;53.160;8.202;2023-08-08T04:28:43;19.13;;;7.95;;
41059;SDS011;26811;53.160;8.202;2023-08-08T04:33:44;23.40;;;8.65;;
41059;SDS011;26811;53.160;8.202;2023-08-08T04:38:45;24.85;;;8.10;;
41059;SDS011;26811;53.160;8.202;2023-08-08T04:43:45;26.80;;;7.75;;
41059;SDS011;26811;53.160;8.202;2023-08-08T04:48:46;21.40;;;8.63;;
41059;SDS011;26811;53.160;8.202;2023-08-08T04:53:47;21.58;;;7.85;;
41059;SDS011;26811;53.160;8.202;2023-08-08T04:58:47;24.77;;;7.82;;
41059;SDS011;26811;53.160;8.202;2023-08-08T05:03:48;18.70;;;6.88;;
41059;SDS011;26811;53.160;8.202;2023-08-08T05:08:51;21.67;;;7.40;;
41059;SDS011;26811;53.160;8.202;2023-08-08T05:13:52;24.05;;;8.18;;
41059;SDS011;26811;53.160;8.202;2023-08-08T05:18:52;19.05;;;7.60;;
41059;SDS011;26811;53.160;8.202;2023-08-08T05:23:53;24.95;;;8.05;;
41059;SDS011;26811;53.160;8.202;2023-08-08T05:28:55;21.08;;;7.55;;
41059;SDS011;26811;53.160;8.202;2023-08-08T05:33:56;18.17;;;7.13;;
41059;SDS011;26811;53.160;8.202;2023-08-08T05:38:59;19.25;;;7.25;;
41059;SDS011;26811;53.160;8.202;2023-08-08T05:44:00;25.27;;;7.53;;
41059;SDS011;26811;53.160;8.202;2023-08-08T05:49:00;21.00;;;7.28;;
41059;SDS011;26811;53.160;8.202;2023-08-08T05:54:01;18.15;;;5.70;;
41059;SDS011;26811;53.160;8.202;2023-08-08T05:59:03;20.92;;;6.78;;
41059;SDS011;26811;53.160;8.202;2023-08-08T06:04:03;16.08;;;6.00;;
41059;SDS011;26811;53.160;8.202;2023-08-08T06:09:04;22.88;;;5.85;;
41059;SDS011;26811;53.160;8.202;2023-08-08T06:14:05;17.13;;;5.00;;
41059;SDS011;26811;53.160;8.202;2023-08-08T06:19:05;12.35;;;4.75;;
41059;SDS011;26811;53.160;8.202;2023-08-08T06:24:06;15.38;;;4.57;;
41059;SDS011;26811;53.160;8.202;2023-08-08T06:29:06;19.65;;;5.00;;
41059;SDS011;26811;53.160;8.202;2023-08-08T06:34:07;11.25;;;4.10;;
41059;SDS011;26811;53.160;8.202;2023-08-08T06:39:07;21.98;;;4.20;;
41059;SDS011;26811;53.160;8.202;2023-08-08T06:44:11;15.23;;;3.95;;
41059;SDS011;26811;53.160;8.202;2023-08-08T06:49:11;18.08;;;3.30;;
41059;SDS011;26811;53.160;8.202;2023-08-08T06:54:12;15.38;;;3.50;;
41059;SDS011;26811;53.160;8.202;2023-08-08T06:59:12;10.38;;;3.60;;
41059;SDS011;26811;53.160;8.202;2023-08-08T07:04:13;9.38;;;3.33;;
41059;SDS011;26811;53.160;8.202;2023-08-08T07:09:14;30.52;;;4.00;;
41059;SDS011;26811;53.160;8.202;2023-08-08T07:14:14;14.02;;;3.30;;
41059;SDS011;26811;53.160;8.202;2023-08-08T07:19:15;19.92;;;4.03;;
41059;SDS011;26811;53.160;8.202;2023-08-08T07:24:16;10.95;;;3.63;;
41059;SDS011;26811;53.160;8.202;2023-08-08T07:29:16;13.35;;;4.05;;
41059;SDS011;26811;53.160;8.202;2023-08-08T07:34:17;16.60;;;3.55;;
41059;SDS011;26811;53.160;8.202;2023-08-08T07:39:18;20.17;;;3.53;;
41059;SDS011;26811;53.160;8.202;2023-08-08T07:44:18;16.48;;;3.45;;
41059;SDS011;26811;53.160;8.202;2023-08-08T07:49:19;10.98;;;3.13;;
41059;SDS011;26811;53.160;8.202;2023-08-08T07:54:19;20.05;;;3.35;;
41059;SDS011;26811;53.160;8.202;2023-08-08T07:59:20;12.63;;;3.28;;
41059;SDS011;26811;53.160;8.202;2023-08-08T08:04:20;14.68;;;3.10;;
41059;SDS011;26811;53.160;8.202;2023-08-08T08:09:24;14.50;;;3.05;;
41059;SDS011;26811;53.160;8.202;2023-08-08T08:14:24;14.23;;;2.78;;
41059;SDS011;26811;53.160;8.202;2023-08-08T08:19:25;17.63;;;2.88;;
41059;SDS011;26811;53.160;8.202;2023-08-08T08:24:25;11.27;;;2.38;;
41059;SDS011;26811;53.160;8.202;2023-08-08T08:29:26;11.80;;;2.70;;
41059;SDS011;26811;53.160;8.202;2023-08-08T08:34:26;30.05;;;4.53;;
41059;SDS011;26811;53.160;8.202;2023-08-08T08:39:27;13.75;;;2.55;;
41059;SDS011;26811;53.160;8.202;2023-08-08T08:44:27;27.90;;;2.90;;
41059;SDS011;26811;53.160;8.202;2023-08-08T08:49:34;7.63;;;2.15;;
41059;SDS011;26811;53.160;8.202;2023-08-08T08:54:38;9.52;;;2.30;;
41059;SDS011;26811;53.160;8.202;2023-08-08T08:59:38;5.97;;;1.83;;
41059;SDS011;26811;53.160;8.202;2023-08-08T09:04:39;7.88;;;1.80;;
41059;SDS011;26811;53.160;8.202;2023-08-08T09:09:42;11.05;;;1.92;;
41059;SDS011;26811;53.160;8.202;2023-08-08T09:14:43;14.25;;;2.00;;
41059;SDS011;26811;53.160;8.202;2023-08-08T09:19:44;5.78;;;1.70;;
41059;SDS011;26811;53.160;8.202;2023-08-08T09:24:46;8.77;;;2.05;;
41059;SDS011;26811;53.160;8.202;2023-08-08T09:29:47;9.25;;;2.20;;
41059;SDS011;26811;53.160;8.202;2023-08-08T09:34:48;11.65;;;2.08;;
41059;SDS011;26811;53.160;8.202;2023-08-08T09:39:57;8.98;;;1.83;;
41059;SDS011;26811;53.160;8.202;2023-08-08T09:44:59;6.05;;;1.80;;
41059;SDS011;26811;53.160;8.202;2023-08-08T09:50:00;10.30;;;2.28;;
41059;SDS011;26811;53.160;8.202;2023-08-08T09:55:04;14.75;;;1.92;;
41059;SDS011;26811;53.160;8.202;2023-08-08T10:00:06;7.78;;;2.10;;
41059;SDS011;26811;53.160;8.202;2023-08-08T10:05:12;7.28;;;1.70;;
41059;SDS011;26811;53.160;8.202;2023-08-08T10:10:14;7.50;;;1.50;;
41059;SDS011;26811;53.160;8.202;2023-08-08T10:15:16;7.73;;;1.80;;
41059;SDS011;26811;53.160;8.202;2023-08-08T10:20:16;8.98;;;1.52;;
41059;SDS011;26811;53.160;8.202;2023-08-08T10:25:19;12.68;;;1.90;;
41059;SDS011;26811;53.160;8.202;2023-08-08T10:36:08;5.95;;;2.17;;
41059;SDS011;26811;53.160;8.202;2023-08-08T10:41:10;8.07;;;1.42;;
41059;SDS011;26811;53.160;8.202;2023-08-08T10:46:12;10.27;;;1.98;;
41059;SDS011;26811;53.160;8.202;2023-08-08T10:51:13;12.07;;;2.15;;
41059;SDS011;26811;53.160;8.202;2023-08-08T10:56:15;6.47;;;1.80;;
41059;SDS011;26811;53.160;8.202;2023-08-08T11:01:18;9.63;;;1.63;;
41059;SDS011;26811;53.160;8.202;2023-08-08T11:06:19;8.23;;;1.83;;
41059;SDS011;26811;53.160;8.202;2023-08-08T11:11:20;11.23;;;2.20;;
41059;SDS011;26811;53.160;8.202;2023-08-08T11:16:20;12.98;;;2.03;;
41059;SDS011;26811;53.160;8.202;2023-08-08T11:21:22;6.90;;;1.90;;
41059;SDS011;26811;53.160;8.202;2023-08-08T11:26:23;12.90;;;2.40;;
41059;SDS011;26811;53.160;8.202;2023-08-08T11:31:24;15.00;;;2.22;;
41059;SDS011;26811;53.160;8.202;2023-08-08T11:36:32;8.63;;;2.00;;
41059;SDS011;26811;53.160;8.202;2023-08-08T11:41:34;11.90;;;2.47;;
41059;SDS011;26811;53.160;8.202;2023-08-08T11:46:43;6.57;;;2.00;;
41059;SDS011;26811;53.160;8.202;2023-08-08T11:51:45;14.60;;;3.20;;
41059;SDS011;26811;53.160;8.202;2023-08-08T11:56:46;10.82;;;2.90;;
41059;SDS011;26811;53.160;8.202;2023-08-08T12:01:48;14.40;;;3.35;;
41059;SDS011;26811;53.160;8.202;2023-08-08T12:06:49;10.02;;;3.00;;
41059;SDS011;26811;53.160;8.202;2023-08-08T12:11:50;15.15;;;3.08;;
41059;SDS011;26811;53.160;8.202;2023-08-08T12:16:50;11.25;;;2.63;;
41059;SDS011;26811;53.160;8.202;2023-08-08T12:21:51;15.93;;;3.15;;
41059;SDS011;26811;53.160;8.202;2023-08-08T12:26:52;12.32;;;2.95;;
41059;SDS011;26811;53.160;8.202;2023-08-08T12:31:52;14.40;;;3.35;;
41059;SDS011;26811;53.160;8.202;2023-08-08T12:36:53;10.80;;;2.88;;
41059;SDS011;26811;53.160;8.202;2023-08-08T12:41:53;15.15;;;2.92;;
41059;SDS011;26811;53.160;8.202;2023-08-08T12:46:54;14.25;;;2.90;;
41059;SDS011;26811;53.160;8.202;2023-08-08T12:51:54;16.10;;;2.95;;
41059;SDS011;26811;53.160;8.202;2023-08-08T12:56:58;15.18;;;3.08;;
41059;SDS011;26811;53.160;8.202;2023-08-08T13:01:58;19.70;;;2.63;;
41059;SDS011;26811;53.160;8.202;2023-08-08T13:06:59;9.20;;;2.50;;
41059;SDS011;26811;53.160;8.202;2023-08-08T13:11:59;12.38;;;2.55;;
41059;SDS011;26811;53.160;8.202;2023-08-08T13:17:00;9.75;;;2.15;;
41059;SDS011;26811;53.160;8.202;2023-08-08T13:22:01;8.10;;;2.03;;
41059;SDS011;26811;53.160;8.202;2023-08-08T13:27:02;6.38;;;2.00;;
41059;SDS011;26811;53.160;8.202;2023-08-08T13:32:03;8.10;;;1.90;;
41059;SDS011;26811;53.160;8.202;2023-08-08T13:37:04;10.20;;;2.28;;
41059;SDS011;26811;53.160;8.202;2023-08-08T13:42:05;14.88;;;2.42;;
41059;SDS011;26811;53.160;8.202;2023-08-08T13:47:05;8.30;;;2.42;;
41059;SDS011;26811;53.160;8.202;2023-08-08T13:52:06;12.23;;;2.55;;
41059;SDS011;26811;53.160;8.202;2023-08-08T13:57:13;13.80;;;2.95;;
41059;SDS011;26811;53.160;8.202;2023-08-08T14:02:13;18.13;;;2.47;;
41059;SDS011;26811;53.160;8.202;2023-08-08T14:07:14;12.30;;;1.90;;
41059;SDS011;26811;53.160;8.202;2023-08-08T14:12:14;6.65;;;1.92;;
41059;SDS011;26811;53.160;8.202;2023-08-08T14:17:15;8.05;;;1.88;;
41059;SDS011;26811;53.160;8.202;2023-08-08T14:22:15;12.25;;;2.00;;
41059;SDS011;26811;53.160;8.202;2023-08-08T14:27:16;10.57;;;2.25;;
41059;SDS011;26811;53.160;8.202;2023-08-08T14:32:16;6.05;;;2.00;;
41059;SDS011;26811;53.160;8.202;2023-08-08T14:37:17;8.63;;;1.73;;
41059;SDS011;26811;53.160;8.202;2023-08-08T14:42:18;9.82;;;2.00;;
41059;SDS011;26811;53.160;8.202;2023-08-08T14:47:19;13.60;;;1.80;;
41059;SDS011;26811;53.160;8.202;2023-08-08T14:52:19;10.45;;;2.15;;
41059;SDS011;26811;53.160;8.202;2023-08-08T14:57:20;8.35;;;1.95;;
41059;SDS011;26811;53.160;8.202;2023-08-08T15:02:21;11.25;;;1.88;;
41059;SDS011;26811;53.160;8.202;2023-08-08T15:07:21;6.30;;;1.80;;
41059;SDS011;26811;53.160;8.202;2023-08-08T15:12:22;9.52;;;1.98;;
41059;SDS011;26811;53.160;8.202;2023-08-08T15:17:22;11.93;;;2.20;;
41059;SDS011;26811;53.160;8.202;2023-08-08T15:22:23;6.13;;;2.40;;
41059;SDS011;26811;53.160;8.202;2023-08-08T15:27:23;10.15;;;2.20;;
41059;SDS011;26811;53.160;8.202;2023-08-08T15:32:24;11.18;;;1.80;;
41059;SDS011;26811;53.160;8.202;2023-08-08T15:37:24;10.77;;;1.42;;
41059;SDS011;26811;53.160;8.202;2023-08-08T15:42:25;9.13;;;2.30;;
41059;SDS011;26811;53.160;8.202;2023-08-08T15:47:25;10.48;;;2.20;;
41059;SDS011;26811;53.160;8.202;2023-08-08T15:52:26;12.52;;;2.33;;
41059;SDS011;26811;53.160;8.202;2023-08-08T15:57:26;10.10;;;1.77;;
41059;SDS011;26811;53.160;8.202;2023-08-08T16:02:27;12.30;;;2.83;;
41059;SDS011;26811;53.160;8.202;2023-08-08T16:07:27;9.90;;;1.88;;
41059;SDS011;26811;53.160;8.202;2023-08-08T16:12:28;8.02;;;2.28;;
41059;SDS011;26811;53.160;8.202;2023-08-08T16:17:29;11.88;;;1.50;;
41059;SDS011;26811;53.160;8.202;2023-08-08T16:22:31;5.68;;;1.77;;
41059;SDS011;26811;53.160;8.202;2023-08-08T16:27:31;7.00;;;1.77;;
41059;SDS011;26811;53.160;8.202;2023-08-08T16:32:32;6.65;;;1.58;;
41059;SDS011;26811;53.160;8.202;2023-08-08T16:37:32;13.15;;;1.52;;
41059;SDS011;26811;53.160;8.202;2023-08-08T16:42:33;6.82;;;1.48;;
41059;SDS011;26811;53.160;8.202;2023-08-08T16:47:37;8.50;;;1.60;;
41059;SDS011;26811;53.160;8.202;2023-08-08T16:52:37;10.10;;;1.70;;
41059;SDS011;26811;53.160;8.202;2023-08-08T16:57:38;8.00;;;1.85;;
41059;SDS011;26811;53.160;8.202;2023-08-08T17:02:38;9.38;;;1.90;;
41059;SDS011;26811;53.160;8.202;2023-08-08T17:07:39;11.27;;;1.90;;
41059;SDS011;26811;53.160;8.202;2023-08-08T17:12:39;9.82;;;2.10;;
41059;SDS011;26811;53.160;8.202;2023-08-08T17:17:40;6.90;;;1.65;;
41059;SDS011;26811;53.160;8.202;2023-08-08T17:22:41;12.93;;;2.63;;
41059;SDS011;26811;53.160;8.202;2023-08-08T17:27:41;7.85;;;1.63;;
41059;SDS011;26811;53.160;8.202;2023-08-08T17:32:42;5.88;;;1.90;;
41059;SDS011;26811;53.160;8.202;2023-08-08T17:37:42;8.18;;;1.77;;
41059;SDS011;26811;53.160;8.202;2023-08-08T17:42:43;18.38;;;2.85;;
41059;SDS011;26811;53.160;8.202;2023-08-08T17:47:43;12.73;;;1.85;;
41059;SDS011;26811;53.160;8.202;2023-08-08T17:52:44;9.60;;;1.98;;
41059;SDS011;26811;53.160;8.202;2023-08-08T17:57:44;7.75;;;1.58;;
41059;SDS011;26811;53.160;8.202;2023-08-08T18:02:45;9.65;;;2.65;;
41059;SDS011;26811;53.160;8.202;2023-08-08T18:07:45;10.93;;;1.85;;
41059;SDS011;26811;53.160;8.202;2023-08-08T18:12:52;5.38;;;2.05;;
41059;SDS011;26811;53.160;8.202;2023-08-08T18:17:52;7.93;;;1.50;;
41059;SDS011;26811;53.160;8.202;2023-08-08T18:22:53;12.43;;;1.70;;
41059;SDS011;26811;53.160;8.202;2023-08-08T18:27:53;11.95;;;1.92;;
41059;SDS011;26811;53.160;8.202;2023-08-08T18:32:54;8.20;;;1.77;;
41059;SDS011;26811;53.160;8.202;2023-08-08T18:37:54;7.28;;;1.92;;
41059;SDS011;26811;53.160;8.202;2023-08-08T18:42:55;15.07;;;1.80;;
41059;SDS011;26811;53.160;8.202;2023-08-08T18:47:55;13.30;;;2.00;;
41059;SDS011;26811;53.160;8.202;2023-08-08T18:52:56;8.80;;;1.77;;
41059;SDS011;26811;53.160;8.202;2023-08-08T18:57:57;10.75;;;1.95;;
41059;SDS011;26811;53.160;8.202;2023-08-08T19:02:59;9.10;;;1.70;;
41059;SDS011;26811;53.160;8.202;2023-08-08T19:07:59;10.88;;;1.90;;
41059;SDS011;26811;53.160;8.202;2023-08-08T19:13:00;7.95;;;1.90;;
41059;SDS011;26811;53.160;8.202;2023-08-08T19:18:00;15.45;;;2.10;;
41059;SDS011;26811;53.160;8.202;2023-08-08T19:23:01;8.48;;;1.90;;
41059;SDS011;26811;53.160;8.202;2023-08-08T19:28:02;11.23;;;2.00;;
41059;SDS011;26811;53.160;8.202;2023-08-08T19:33:04;10.32;;;1.92;;
41059;SDS011;26811;53.160;8.202;2023-08-08T19:38:04;9.63;;;2.20;;
41059;SDS011;26811;53.160;8.202;2023-08-08T19:43:05;9.20;;;1.75;;
41059;SDS011;26811;53.160;8.202;2023-08-08T19:48:05;10.20;;;2.00;;
41059;SDS011;26811;53.160;8.202;2023-08-08T19:53:06;9.23;;;1.75;;
41059;SDS011;26811;53.160;8.202;2023-08-08T19:58:07;9.05;;;2.03;;
41059;SDS011;26811;53.160;8.202;2023-08-08T20:03:07;9.45;;;2.47;;
41059;SDS011;26811;53.160;8.202;2023-08-08T20:08:08;11.18;;;2.05;;
41059;SDS011;26811;53.160;8.202;2023-08-08T20:13:08;8.15;;;2.10;;
41059;SDS011;26811;53.160;8.202;2023-08-08T20:18:10;9.17;;;2.43;;
41059;SDS011;26811;53.160;8.202;2023-08-08T20:23:11;16.08;;;2.35;;
41059;SDS011;26811;53.160;8.202;2023-08-08T20:28:11;10.45;;;2.10;;
41059;SDS011;26811;53.160;8.202;2023-08-08T20:33:12;9.02;;;2.40;;
41059;SDS011;26811;53.160;8.202;2023-08-08T20:38:12;10.38;;;2.35;;
41059;SDS011;26811;53.160;8.202;2023-08-08T20:43:13;9.45;;;2.08;;
41059;SDS011;26811;53.160;8.202;2023-08-08T20:48:14;9.32;;;2.30;;
41059;SDS011;26811;53.160;8.202;2023-08-08T20:53:14;9.85;;;2.33;;
41059;SDS011;26811;53.160;8.202;2023-08-08T20:58:15;10.80;;;2.33;;
41059;SDS011;26811;53.160;8.202;2023-08-08T21:03:15;7.28;;;2.10;;
41059;SDS011;26811;53.160;8.202;2023-08-08T21:08:16;6.47;;;2.15;;
41059;SDS011;26811;53.160;8.202;2023-08-08T21:13:19;8.07;;;1.98;;
41059;SDS011;26811;53.160;8.202;2023-08-08T21:18:20;6.93;;;1.88;;
41059;SDS011;26811;53.160;8.202;2023-08-08T21:23:21;6.63;;;2.63;;
41059;SDS011;26811;53.160;8.202;2023-08-08T21:28:22;9.95;;;2.42;;
41059;SDS011;26811;53.160;8.202;2023-08-08T21:33:22;8.38;;;2.00;;
41059;SDS011;26811;53.160;8.202;2023-08-08T21:38:23;12.13;;;2.20;;
41059;SDS011;26811;53.160;8.202;2023-08-08T21:43:23;8.88;;;2.15;;
41059;SDS011;26811;53.160;8.202;2023-08-08T21:48:24;7.25;;;1.90;;
41059;SDS011;26811;53.160;8.202;2023-08-08T21:53:25;10.90;;;2.30;;
41059;SDS011;26811;53.160;8.202;2023-08-08T21:58:26;14.10;;;3.05;;
41059;SDS011;26811;53.160;8.202;2023-08-08T22:03:26;8.43;;;2.15;;
41059;SDS011;26811;53.160;8.202;2023-08-08T22:08:27;9.25;;;2.10;;
41059;SDS011;26811;53.160;8.202;2023-08-08T22:13:27;9.63;;;2.10;;
41059;SDS011;26811;53.160;8.202;2023-08-08T22:18:28;9.50;;;1.90;;
41059;SDS011;26811;53.160;8.202;2023-08-08T22:23:29;5.03;;;2.35;;
41059;SDS011;26811;53.160;8.202;2023-08-08T22:28:29;9.82;;;3.00;;
41059;SDS011;26811;53.160;8.202;2023-08-08T22:33:30;18.17;;;5.13;;
41059;SDS011;26811;53.160;8.202;2023-08-08T22:38:30;18.48;;;6.43;;
41059;SDS011;26811;53.160;8.202;2023-08-08T22:43:31;23.30;;;8.20;;
41059;SDS011;26811;53.160;8.202;2023-08-08T22:48:31;29.85;;;10.10;;
41059;SDS011;26811;53.160;8.202;2023-08-08T22:53:32;21.10;;;7.78;;
41059;SDS011;26811;53.160;8.202;2023-08-08T22:58:32;26.80;;;7.93;;
41059;SDS011;26811;53.160;8.202;2023-08-08T23:03:33;22.80;;;7.43;;
41059;SDS011;26811;53.160;8.202;2023-08-08T23:08:35;21.73;;;6.10;;
41059;SDS011;26811;53.160;8.202;2023-08-08T23:13:36;17.92;;;5.72;;
41059;SDS011;26811;53.160;8.202;2023-08-08T23:18:36;19.98;;;5.80;;
41059;SDS011;26811;53.160;8.202;2023-08-08T23:23:37;16.10;;;5.93;;
41059;SDS011;26811;53.160;8.202;2023-08-08T23:28:38;21.80;;;5.85;;
41059;SDS011;26811;53.160;8.202;2023-08-08T23:33:38;18.63;;;5.85;;
41059;SDS011;26811;53.160;8.202;2023-08-08T23:38:39;23.70;;;5.97;;
41059;SDS011;26811;53.160;8.202;2023-08-08T23:43:39;16.80;;;5.55;;
41059;SDS011;26811;53.160;8.202;2023-08-08T23:48:40;16.20;;;4.95;;
41059;SDS011;26811;53.160;8.202;2023-08-08T23:53:40;17.05;;;4.70;;
41059;SDS011;26811;53.160;8.202;2023-08-08T23:58:41;10.82;;;4.00;;
